Flight Track Log - Related Links

Times and Time Zones

All times are in EDT time to prevent confusion due to time zone crossing. See the AWE754 flight status page for this flight to view local times or setup timezone preferences in your user account.

Time Position Orientation Groundspeed Altitude Reporting Facility
EDT Latitude Longitude Course Direction KTS MPH feet Rate Location/Type
Sat 02:04:20 PM 28.4000 -81.3000 355° North 191 220 600  Level Orlando TRACON
Sat 02:05:03 PM 28.3667 -81.2833 156° South 202 232 2,000 1,573 Climbing Orlando TRACON
Sat 02:06:03 PM 28.3333 -81.2333 127° Southeast 255 293 3,300 1,750 Climbing Orlando TRACON
Sat 02:07:00 PM 28.7547 -81.3500 North  Level FlightAware Approximate
Sat 02:07:03 PM 28.3333 -81.1500 90° East 256 295 5,500  Level Orlando TRACON
Sat 02:07:57 PM 28.3833 -81.1167 30° Northeast 273 314 7,200 1,797 Climbing Orlando TRACON
Sat 02:08:00 PM 28.8689 -81.3536 355° North  Level FlightAware Approximate
Sat 02:09:00 PM 28.9828 -81.3650 355° North  Level FlightAware Approximate
Sat 02:10:10 PM 28.5369 -81.1700 343° North 283 326 11,100  Level Jacksonville Center
Sat 02:11:10 PM 28.6147 -81.2017 340° North 283 326 12,900 1,850 Climbing Jacksonville Center
Sat 02:12:10 PM 28.6922 -81.2336 340° North 290 334 14,800 1,750 Climbing Jacksonville Center
Sat 02:13:10 PM 28.7739 -81.2631 342° North 295 339 16,400 1,300 Climbing Jacksonville Center
Sat 02:14:10 PM 28.8619 -81.2947 343° North 307 353 17,400 1,200 Climbing Jacksonville Center
Sat 02:15:10 PM 28.9503 -81.3314 340° North 327 376 18,800 1,400 Climbing Jacksonville Center
Sat 02:16:10 PM 29.0467 -81.3678 342° North 340 391 20,200 1,150 Climbing Jacksonville Center
Sat 02:17:10 PM 29.1431 -81.3972 345° North 350 403 21,100 1,100 Climbing Jacksonville Center
Sat 02:18:10 PM 29.2494 -81.4050 356° North 363 418 22,400 1,200 Climbing Jacksonville Center
Sat 02:19:10 PM 29.3561 -81.4200 353° North 376 433 23,500 1,150 Climbing Jacksonville Center
Sat 02:20:10 PM 29.4669 -81.4281 356° North 389 448 24,700 900 Climbing Jacksonville Center
Sat 02:21:10 PM 29.5819 -81.4383 356° North 399 459 25,300 850 Climbing Jacksonville Center
Sat 02:22:10 PM 29.7008 -81.4508 355° North 409 471 26,400 1,000 Climbing Jacksonville Center
Sat 02:23:10 PM 29.8181 -81.4611 356° North 419 482 27,300 850 Climbing Jacksonville Center
Sat 02:24:10 PM 29.9414 -81.4736 355° North 430 495 28,100 850 Climbing Jacksonville Center
Sat 02:25:10 PM 30.0667 -81.4836 356° North 435 501 29,000 750 Climbing Jacksonville Center
Sat 02:26:10 PM 30.1900 -81.4939 356° North 446 513 29,600 800 Climbing Jacksonville Center
Sat 02:27:10 PM 30.3172 -81.4825 North 446 513 30,600 900 Climbing Jacksonville Center
Sat 02:28:10 PM 30.4444 -81.4636 North 446 513 31,400 850 Climbing Jacksonville Center
Sat 02:29:10 PM 30.5650 -81.4233 16° North 438 504 32,300 750 Climbing Jacksonville Center
Sat 02:30:10 PM 30.6747 -81.3467 31° Northeast 438 504 32,900 350 Climbing Jacksonville Center
Sat 02:31:10 PM 30.7864 -81.2700 31° Northeast 450 518 33,000 50 Climbing Jacksonville Center
Sat 02:32:10 PM 30.9025 -81.1906 30° Northeast 464 534 33,000  Level Jacksonville Center
Sat 02:33:10 PM 31.0183 -81.1108 31° Northeast 469 540 33,000  Level Jacksonville Center
Sat 02:34:10 PM 31.1339 -81.0286 31° Northeast 474 545 33,000  Level Jacksonville Center
Sat 02:35:10 PM 31.2517 -80.9483 30° Northeast 480 552 33,000  Level Jacksonville Center
Sat 02:36:10 PM 31.3653 -80.8683 31° Northeast 480 552 33,000  Level Jacksonville Center
Sat 02:37:10 PM 31.4911 -80.7778 32° Northeast 474 545 33,000  Level Jacksonville Center
Sat 02:38:10 PM 31.5986 -80.7072 29° Northeast 474 545 33,000  Level Jacksonville Center
Sat 02:39:10 PM 31.7119 -80.6239 32° Northeast 483 556 33,000  Level Jacksonville Center
Sat 02:40:10 PM 31.8378 -80.5328 32° Northeast 478 550 33,000  Level Jacksonville Center
Sat 02:41:10 PM 31.9450 -80.4614 29° Northeast 478 550 33,000 -50 Level Jacksonville Center
Sat 02:42:10 PM 32.0603 -80.3775 32° Northeast 483 556 32,900 -50 Descending Jacksonville Center
Sat 02:43:10 PM 32.1753 -80.2958 31° Northeast 483 556 32,900  Level Jacksonville Center
Sat 02:44:10 PM 32.2906 -80.2114 32° Northeast 483 556 32,900  Level Jacksonville Center
Sat 02:45:10 PM 32.4058 -80.1294 31° Northeast 483 556 32,900  Level Jacksonville Center
Sat 02:46:10 PM 32.5164 -80.0397 34° Northeast 478 550 32,900  Level Jacksonville Center
Sat 02:47:10 PM 32.6183 -79.9306 42° Northeast 478 550 32,900  Level Jacksonville Center
Sat 02:48:10 PM 32.7158 -79.8186 44° Northeast 478 550 32,900  Level Jacksonville Center
Sat 02:49:10 PM 32.8153 -79.7042 44° Northeast 483 556 32,900  Level Jacksonville Center
Sat 02:50:10 PM 32.9125 -79.5942 44° Northeast 488 562 32,900  Level Jacksonville Center
Sat 02:51:10 PM 33.0119 -79.4817 43° Northeast 493 567 32,900  Level Jacksonville Center
Sat 02:52:10 PM 33.1022 -79.3542 50° Northeast 483 556 32,900  Level Jacksonville Center
Sat 02:53:10 PM 33.1908 -79.2339 49° Northeast 483 556 32,900  Level Jacksonville Center
Sat 02:54:10 PM 33.2811 -79.1111 49° Northeast 483 556 32,900  Level Jacksonville Center
Sat 02:55:10 PM 33.4031 -79.0039 36° Northeast 484 557 32,900  Level Jacksonville Center
Sat 02:56:10 PM 33.5031 -78.9322 31° Northeast 475 547 32,900  Level Jacksonville Center
Sat 02:57:10 PM 33.6214 -78.8472 31° Northeast 480 552 32,900  Level Jacksonville Center
Sat 02:59:00 PM 33.8353 -78.6967 30° Northeast 492 566 32,900 35 Level Washington Center
Sat 03:00:00 PM 33.9522 -78.6111 31° Northeast 492 566 33,000  Climbing Washington Center
Sat 03:01:01 PM 34.0669 -78.5300 30° Northeast 492 566 32,900 -50 Descending Washington Center
Sat 03:01:59 PM 34.1881 -78.4439 30° Northeast 492 566 32,900  Level Washington Center
Sat 03:03:00 PM 34.3047 -78.3575 31° Northeast 492 566 32,900  Level Washington Center
Sat 03:04:00 PM 34.4192 -78.2733 31° Northeast 492 566 32,900  Level Washington Center
Sat 03:05:00 PM 34.5294 -78.1936 31° Northeast 478 550 32,900  Level Washington Center
Sat 03:06:01 PM 34.6397 -78.1089 32° Northeast 471 542 32,900  Level Washington Center
Sat 03:06:59 PM 34.7481 -78.0286 31° Northeast 466 536 32,900 50 Level Washington Center
Sat 03:08:00 PM 34.8539 -77.9458 33° Northeast 460 529 33,000 50 Climbing Washington Center
Sat 03:09:00 PM 34.9619 -77.8653 31° Northeast 460 529 33,000  Level Washington Center
Sat 03:10:01 PM 35.0719 -77.7797 32° Northeast 460 529 33,000 -50 Level Washington Center
Sat 03:11:01 PM 35.1819 -77.6986 31° Northeast 460 529 32,900 -51 Descending Washington Center
Sat 03:11:59 PM 35.2919 -77.6175 31° Northeast 460 529 32,900 -458 Level Washington Center
Sat 03:12:59 PM 35.4017 -77.5311 33° Northeast 460 529 32,000 -893 Descending Washington Center
Sat 03:14:00 PM 35.5097 -77.4369 35° Northeast 465 535 31,100 -492 Descending Washington Center
Sat 03:15:01 PM 35.6175 -77.3422 36° Northeast 471 542 31,000 -50 Descending Washington Center
Sat 03:15:59 PM 35.7272 -77.2475 35° Northeast 476 548 31,000  Level Washington Center
Sat 03:16:59 PM 35.8331 -77.1522 36° Northeast 476 548 31,000 -50 Level Washington Center
Sat 03:18:00 PM 35.9469 -77.0442 38° Northeast 471 542 30,900 -50 Descending Washington Center
Sat 03:19:00 PM 36.0586 -76.9511 34° Northeast 471 542 30,900  Level Washington Center
Sat 03:20:01 PM 36.1661 -76.8553 36° Northeast 476 548 30,900 -101 Level Washington Center
Sat 03:20:59 PM 36.2775 -76.7694 32° Northeast 476 548 30,700 -605 Descending Washington Center
Sat 03:22:00 PM 36.3931 -76.6861 30° Northeast 471 542 29,700 -885 Descending Washington Center
Sat 03:23:01 PM 36.5064 -76.6050 30° Northeast 471 542 28,900 -397 Descending Washington Center
Sat 03:24:01 PM 36.6197 -76.5236 30° Northeast 471 542 28,900 50 Level Washington Center
Sat 03:25:01 PM 36.7206 -76.4497 30° Northeast 466 536 29,000 51 Climbing Washington Center
Sat 03:25:59 PM 36.8336 -76.3653 31° Northeast 466 536 29,000  Level Washington Center
Sat 03:26:59 PM 36.9489 -76.2833 30° Northeast 466 536 29,000  Level Washington Center
Sat 03:28:00 PM 37.0683 -76.1958 30° Northeast 471 542 29,000 -50 Level Washington Center
Sat 03:29:00 PM 37.1939 -76.1108 28° Northeast 490 564 28,900 -347 Descending Washington Center
Sat 03:30:01 PM 37.3153 -76.0228 30° Northeast 495 570 28,300 -807 Descending Washington Center
Sat 03:30:59 PM 37.4322 -75.9369 30° Northeast 495 570 27,300 -1,008 Descending Washington Center
Sat 03:32:00 PM 37.5472 -75.8511 31° Northeast 489 563 26,300 -934 Descending Washington Center
Sat 03:33:01 PM 37.6619 -75.7650 31° Northeast 484 557 25,400 -689 Descending Washington Center
Sat 03:34:02 PM 37.7747 -75.6811 30° Northeast 479 551 24,900 -254 Descending Washington Center
Sat 03:34:59 PM 37.8875 -75.5944 31° Northeast 474 545 24,900 -305 Level Washington Center
Sat 03:36:00 PM 38.0022 -75.5128 29° Northeast 474 545 24,300 -787 Descending Washington Center
Sat 03:37:01 PM 38.1167 -75.4308 29° Northeast 463 533 23,300 -1,041 Descending Washington Center
Sat 03:38:01 PM 38.2314 -75.3617 25° Northeast 457 526 22,200 -1,576 Descending Washington Center
Sat 03:38:59 PM 38.3436 -75.2819 29° Northeast 452 520 20,200 -2,420 Descending Washington Center
Sat 03:40:00 PM 38.4478 -75.2181 26° Northeast 436 502 17,400 -2,213 Descending Washington Center
Sat 03:41:01 PM 38.5497 -75.1511 27° Northeast 420 483 15,700 -1,190 Descending Washington Center
Sat 03:42:01 PM 38.6494 -75.0892 26° Northeast 400 460 15,000 -356 Descending Washington Center
Sat 03:42:59 PM 38.7472 -75.0272 26° Northeast 395 455 15,000  Level Washington Center
Sat 03:44:00 PM 38.8469 -74.9625 27° Northeast 395 455 15,000  Level Washington Center
Sat 03:45:01 PM 38.9444 -74.8950 28° Northeast 395 455 15,000  Level Washington Center
Sat 03:45:59 PM 39.0339 -74.8247 31° Northeast 385 443 15,000 -403 Level Washington Center
Sat 03:47:00 PM 39.1081 -74.7383 42° Northeast 368 423 14,200 -1,240 Descending Washington Center
Sat 03:48:00 PM 39.1931 -74.6436 41° Northeast 362 417 12,500 -1,321 Descending Washington Center
Sat 03:49:39 PM 39.3167 -74.5833 21° North 309 356 10,700 -1,245 Descending Philadelphia TRACON
Sat 03:50:39 PM 39.3667 -74.6667 308° West 287 330 9,200 -944 Descending Philadelphia TRACON
Sat 03:51:27 PM 39.4167 -74.7500 308° West 295 339 9,000 -100 Descending Philadelphia TRACON
Sat 03:52:39 PM 39.4667 -74.8500 303° West 297 342 9,000 -190 Level Philadelphia TRACON
Sat 03:53:33 PM 39.5167 -74.9167 314° West 293 337 8,600 -1,000 Descending Philadelphia TRACON
Sat 03:54:27 PM 39.5333 -75.0000 285° West 281 323 7,200 -1,400 Descending Philadelphia TRACON
Sat 03:55:33 PM 39.5500 -75.1167 281° West 269 310 5,800 -1,048 Descending Philadelphia TRACON
Sat 03:56:33 PM 39.5500 -75.2000 270° West 263 303 5,000 -421 Descending Philadelphia TRACON
Sat 03:57:27 PM 39.5833 -75.2833 297° West 257 296 5,000 -211 Level Philadelphia TRACON
Sat 03:58:27 PM 39.6333 -75.3500 314° West 260 299 4,600 -400 Descending Philadelphia TRACON
Sat 03:59:27 PM 39.6833 -75.4167 314° West 258 297 4,200 -750 Descending Philadelphia TRACON
Sat 04:00:27 PM 39.7333 -75.4500 333° Northwest 235 270 3,100 -619 Descending Philadelphia TRACON
Sat 04:01:33 PM 39.8000 -75.4667 349° North 220 253 2,900 -516 Descending Philadelphia TRACON
Sat 04:03:33 PM 39.8500 -75.3500 61° Northeast 172 198 1,500 -774 Descending Philadelphia TRACON
Sat 04:04:39 PM 39.8500 -75.3000 90° East 151 174 500 -909 Descending Philadelphia TRACON

Login

Don't have an account? Register now (free) for customized features, flight alerts, and more!